createdAt,value
2019-05-14T00:00:52.256Z,43.15
2019-05-14T00:03:21.733Z,43.52
2019-05-14T00:05:51.493Z,43.50
2019-05-14T00:08:19.326Z,43.64
2019-05-14T00:10:47.525Z,50.28
2019-05-14T00:13:15.632Z,61.91
2019-05-14T00:15:43.883Z,47.71
2019-05-14T00:18:12.008Z,44.52
2019-05-14T00:20:41.968Z,43.79
2019-05-14T00:23:11.830Z,43.49
2019-05-14T00:25:41.881Z,43.51
2019-05-14T00:28:11.786Z,61.85
2019-05-14T00:30:42.098Z,44.63
2019-05-14T00:33:11.575Z,44.08
2019-05-14T00:35:41.362Z,43.77
2019-05-14T00:38:11.748Z,43.90
2019-05-14T00:40:41.799Z,44.00
2019-05-14T00:43:11.306Z,49.72
2019-05-14T00:45:41.629Z,43.99
2019-05-14T00:48:09.227Z,45.54
2019-05-14T00:50:37.493Z,65.03
2019-05-14T00:53:05.655Z,61.67
2019-05-14T00:55:33.739Z,58.65
2019-05-14T00:58:02.493Z,62.49
2019-05-14T01:00:31.341Z,46.54
2019-05-14T01:03:01.802Z,67.49
2019-05-14T01:05:29.433Z,69.34
2019-05-14T01:07:57.549Z,67.83
2019-05-14T01:10:25.790Z,54.43
2019-05-14T01:12:53.943Z,68.52
2019-05-14T01:15:22.050Z,45.50
2019-05-14T01:17:51.615Z,45.00
2019-05-14T01:20:21.243Z,54.31
2019-05-14T01:22:51.422Z,46.48
2019-05-14T01:25:19.491Z,45.58
2019-05-14T01:27:47.605Z,44.49
2019-05-14T01:30:15.763Z,44.33
2019-05-14T01:32:43.947Z,44.23
2019-05-14T01:35:12.260Z,62.90
2019-05-14T01:37:41.632Z,45.37
2019-05-14T01:40:11.412Z,56.22
2019-05-14T01:42:41.649Z,59.49
2019-05-14T01:45:23.467Z,48.85
2019-05-14T01:47:41.453Z,45.31
2019-05-14T01:50:11.317Z,45.19
2019-05-14T01:52:41.624Z,44.77
2019-05-14T01:55:11.410Z,44.91
2019-05-14T01:57:39.522Z,47.96
2019-05-14T02:00:08.842Z,45.57
2019-05-14T02:02:37.057Z,45.51
2019-05-14T02:05:05.477Z,45.38
2019-05-14T02:07:33.603Z,45.58
2019-05-14T02:10:01.694Z,62.11
2019-05-14T02:12:31.568Z,46.30
2019-05-14T02:15:01.878Z,46.36
2019-05-14T02:17:31.694Z,45.56
2019-05-14T02:20:01.860Z,45.77
2019-05-14T02:22:31.905Z,45.48
2019-05-14T02:24:59.461Z,45.36
2019-05-14T02:27:27.564Z,45.53
2019-05-14T02:29:55.830Z,45.73
2019-05-14T02:32:23.969Z,45.69
2019-05-14T02:34:52.414Z,45.66
2019-05-14T02:37:20.693Z,45.71
2019-05-14T02:39:50.245Z,45.99
2019-05-14T02:42:19.703Z,45.88
2019-05-14T02:44:49.195Z,45.84
2019-05-14T02:47:19.494Z,45.56
2019-05-14T02:49:50.253Z,45.68
2019-05-14T02:52:20.466Z,45.90
2019-05-14T02:54:49.540Z,45.54
2019-05-14T02:57:19.726Z,45.82
2019-05-14T02:59:49.883Z,46.07
2019-05-14T03:02:18.780Z,45.83
2019-05-14T03:04:49.544Z,45.91
2019-05-14T03:07:19.382Z,45.65
2019-05-14T03:09:46.330Z,45.62
2019-05-14T03:12:14.563Z,45.77
2019-05-14T03:14:42.913Z,45.56
2019-05-14T03:17:11.169Z,45.72
2019-05-14T03:19:40.708Z,45.73
2019-05-14T03:22:10.315Z,62.62
2019-05-14T03:24:39.851Z,48.91
2019-05-14T03:27:09.607Z,66.56
2019-05-14T03:29:39.709Z,46.97
2019-05-14T03:32:13.090Z,46.54
2019-05-14T03:34:43.139Z,45.85
2019-05-14T03:37:12.751Z,45.50
2019-05-14T03:39:39.654Z,45.54
2019-05-14T03:42:09.393Z,45.53
2019-05-14T03:44:39.904Z,45.37
2019-05-14T03:47:10.333Z,45.30
2019-05-14T03:49:39.741Z,46.12
2019-05-14T03:52:09.545Z,45.78
2019-05-14T03:54:40.256Z,66.84
2019-05-14T03:57:09.522Z,46.16
2019-05-14T03:59:40.332Z,46.15
2019-05-14T04:02:09.694Z,45.86
2019-05-14T04:04:39.417Z,45.55
2019-05-14T04:07:09.976Z,46.18
2019-05-14T04:09:40.104Z,52.86
2019-05-14T04:12:10.305Z,46.67
2019-05-14T04:14:40.543Z,45.83
2019-05-14T04:17:15.525Z,45.73
2019-05-14T04:19:43.383Z,45.49
2019-05-14T04:22:14.341Z,45.60
2019-05-14T04:24:43.743Z,45.42
2019-05-14T04:27:13.783Z,44.93
2019-05-14T04:29:44.464Z,45.03
2019-05-14T04:32:14.283Z,45.12
2019-05-14T04:34:42.469Z,44.79
2019-05-14T04:37:12.387Z,44.74
2019-05-14T04:39:40.534Z,44.96
2019-05-14T04:42:09.793Z,61.19
2019-05-14T04:44:40.376Z,59.00
2019-05-14T04:47:22.554Z,67.93
2019-05-14T04:49:39.794Z,69.53
2019-05-14T04:52:10.090Z,61.51
2019-05-14T04:54:39.449Z,68.66
2019-05-14T04:57:10.161Z,71.11
2019-05-14T04:59:39.689Z,46.34
2019-05-14T05:02:09.685Z,72.56
2019-05-14T05:04:41.245Z,75.40
2019-05-14T05:07:09.921Z,75.23
2019-05-14T05:09:39.795Z,75.78
2019-05-14T05:12:09.083Z,76.15
2019-05-14T05:14:38.935Z,76.53
2019-05-14T05:17:09.205Z,77.00
2019-05-14T05:19:39.373Z,69.75
2019-05-14T05:22:08.022Z,73.28
2019-05-14T05:24:38.101Z,58.50
2019-05-14T05:27:06.386Z,69.79
2019-05-14T05:29:35.161Z,69.44
2019-05-14T05:32:03.279Z,65.92
2019-05-14T05:34:31.413Z,71.00
2019-05-14T05:37:19.114Z,73.42
2019-05-14T05:39:49.139Z,71.56
2019-05-14T05:42:18.810Z,68.78
2019-05-14T05:44:48.362Z,72.77
2019-05-14T05:47:18.297Z,73.69
2019-05-14T05:49:48.840Z,72.15
2019-05-14T05:52:18.917Z,72.74
2019-05-14T05:54:48.780Z,73.02
2019-05-14T05:57:18.588Z,72.05
2019-05-14T05:59:48.508Z,71.80
2019-05-14T06:02:18.392Z,71.83
2019-05-14T06:04:48.061Z,70.24
2019-05-14T06:07:18.283Z,70.10
2019-05-14T06:09:48.128Z,69.18
2019-05-14T06:12:15.847Z,68.97
2019-05-14T06:14:43.994Z,68.09
2019-05-14T06:17:12.123Z,67.99
2019-05-14T06:19:40.248Z,65.91
2019-05-14T06:22:09.754Z,50.71
2019-05-14T06:24:38.985Z,56.08
2019-05-14T06:27:09.450Z,65.69
2019-05-14T06:29:38.274Z,64.36
2019-05-14T06:32:09.079Z,63.61
2019-05-14T06:34:38.223Z,56.62
2019-05-14T06:37:08.444Z,46.56
2019-05-14T06:39:38.845Z,62.00
2019-05-14T06:42:08.742Z,47.74
2019-05-14T06:44:38.382Z,58.29
2019-05-14T06:47:06.093Z,57.79
2019-05-14T06:49:34.222Z,55.11
2019-05-14T06:52:02.309Z,47.10
2019-05-14T06:54:30.444Z,45.51
2019-05-14T06:56:58.781Z,50.50
2019-05-14T06:59:28.789Z,57.30
2019-05-14T07:01:58.071Z,57.59
2019-05-14T07:04:28.654Z,49.66
2019-05-14T07:06:58.864Z,47.16
2019-05-14T07:09:28.755Z,46.89
2019-05-14T07:11:58.500Z,46.57
2019-05-14T07:14:28.291Z,46.99
2019-05-14T07:16:58.586Z,46.81
2019-05-14T07:19:25.936Z,46.73
2019-05-14T07:21:54.136Z,46.65
2019-05-14T07:24:22.338Z,48.62
2019-05-14T07:26:50.607Z,46.88
2019-05-14T07:29:18.786Z,45.93
2019-05-14T07:31:48.971Z,45.94
2019-05-14T07:34:19.008Z,45.15
2019-05-14T07:36:48.904Z,45.35
2019-05-14T07:39:18.563Z,46.95
2019-05-14T07:41:48.398Z,47.63
2019-05-14T07:44:18.265Z,48.75
2019-05-14T07:46:48.276Z,47.51
2019-05-14T07:49:18.311Z,46.74
2019-05-14T07:51:48.009Z,45.09
2019-05-14T07:54:16.444Z,45.57
2019-05-14T07:56:44.608Z,44.15
2019-05-14T07:59:12.822Z,43.38
2019-05-14T08:01:40.958Z,43.16
2019-05-14T08:04:10.982Z,42.44
2019-05-14T08:06:39.541Z,41.96
2019-05-14T08:09:09.137Z,42.56
2019-05-14T08:11:38.743Z,43.02
2019-05-14T08:14:09.050Z,42.38
2019-05-14T08:16:38.146Z,40.60
2019-05-14T08:19:20.912Z,41.84
2019-05-14T08:21:38.564Z,40.88
2019-05-14T08:24:08.829Z,40.38
2019-05-14T08:26:38.231Z,40.40
2019-05-14T08:29:08.510Z,40.71
2019-05-14T08:31:38.279Z,39.69
2019-05-14T08:34:06.685Z,37.48
2019-05-14T08:36:37.821Z,37.62
2019-05-14T08:39:08.851Z,38.44
2019-05-14T08:41:38.376Z,39.32
2019-05-14T08:44:08.578Z,41.22
2019-05-14T08:46:38.689Z,36.13
2019-05-14T08:49:08.800Z,39.86
2019-05-14T08:51:38.862Z,38.60
2019-05-14T08:54:08.204Z,37.33
2019-05-14T08:56:38.754Z,38.39
2019-05-14T08:59:08.511Z,38.92
2019-05-14T09:01:38.530Z,38.69
2019-05-14T09:04:08.787Z,37.51
2019-05-14T09:06:35.214Z,30.92
2019-05-14T09:09:05.065Z,37.70
2019-05-14T09:11:36.360Z,35.15
2019-05-14T09:14:03.268Z,33.55
2019-05-14T09:16:43.164Z,34.08
2019-05-14T09:19:01.523Z,33.31
2019-05-14T09:21:29.861Z,35.17
2019-05-14T09:23:58.715Z,34.87
2019-05-14T09:26:28.462Z,33.49
2019-05-14T09:28:58.657Z,32.38
2019-05-14T09:31:29.449Z,28.76
2019-05-14T09:33:58.494Z,33.32
2019-05-14T09:36:28.758Z,34.49
2019-05-14T09:38:58.388Z,34.19
2019-05-14T09:41:27.685Z,28.17
2019-05-14T09:43:55.112Z,33.97
2019-05-14T09:46:23.244Z,31.65
2019-05-14T09:48:51.363Z,31.76
2019-05-14T09:51:19.559Z,27.07
2019-05-14T09:53:48.903Z,30.20
2019-05-14T09:56:18.617Z,28.34
2019-05-14T09:58:49.244Z,26.65
2019-05-14T10:01:19.338Z,34.84
2019-05-14T10:03:49.347Z,32.79
2019-05-14T10:06:16.736Z,31.94
2019-05-14T10:08:44.848Z,30.29
2019-05-14T10:11:12.988Z,27.87
2019-05-14T10:13:41.162Z,27.07
2019-05-14T10:16:09.700Z,25.87
2019-05-14T10:18:38.148Z,24.08
2019-05-14T10:21:08.624Z,29.19
2019-05-14T10:23:35.236Z,27.10
2019-05-14T10:26:03.470Z,28.36
2019-05-14T10:28:31.582Z,24.01
2019-05-14T10:31:03.560Z,24.53
2019-05-14T10:33:28.907Z,25.28
2019-05-14T10:35:58.863Z,25.93
2019-05-14T10:38:29.542Z,25.20
2019-05-14T10:40:58.239Z,25.14
2019-05-14T10:43:28.767Z,26.44
2019-05-14T10:45:58.065Z,19.34
2019-05-14T10:48:26.178Z,21.75
2019-05-14T10:50:59.958Z,24.41
2019-05-14T10:53:23.340Z,24.00
2019-05-14T10:55:51.461Z,27.81
2019-05-14T10:58:20.301Z,27.37
2019-05-14T11:00:49.498Z,24.37
2019-05-14T11:03:18.604Z,23.16
2019-05-14T11:05:48.131Z,24.38
2019-05-14T11:08:18.720Z,23.38
2019-05-14T11:10:46.234Z,22.62
2019-05-14T11:13:14.407Z,23.34
2019-05-14T11:15:42.536Z,26.28
2019-05-14T11:18:10.634Z,26.04
2019-05-14T11:20:42.173Z,27.10
2019-05-14T11:23:09.071Z,24.06
2019-05-14T11:25:38.315Z,23.21
2019-05-14T11:28:06.730Z,23.10
2019-05-14T11:30:34.902Z,24.18
2019-05-14T11:33:03.053Z,19.92
2019-05-14T11:35:31.189Z,26.97
2019-05-14T11:37:59.392Z,24.39
2019-05-14T11:40:29.402Z,22.52
2019-05-14T11:42:59.187Z,21.86
2019-05-14T11:45:27.328Z,22.95
2019-05-14T11:47:55.465Z,17.97
2019-05-14T11:50:23.665Z,22.68
2019-05-14T11:52:51.863Z,22.44
2019-05-14T11:55:20.062Z,21.65
2019-05-14T11:57:48.622Z,23.21
2019-05-14T12:00:19.612Z,29.50
2019-05-14T12:02:47.584Z,23.84
2019-05-14T12:05:18.729Z,22.24
2019-05-14T12:07:45.873Z,21.53
2019-05-14T12:10:14.808Z,20.87
2019-05-14T12:12:43.061Z,21.39
2019-05-14T12:15:11.682Z,19.49
2019-05-14T12:17:39.928Z,20.98
2019-05-14T12:20:08.363Z,23.18
2019-05-14T12:22:39.031Z,21.05
2019-05-14T12:25:08.168Z,20.91
2019-05-14T12:27:38.766Z,24.27
2019-05-14T12:30:09.646Z,22.07
2019-05-14T12:32:39.630Z,21.98
2019-05-14T12:35:08.628Z,20.62
2019-05-14T12:37:38.499Z,21.04
2019-05-14T12:40:08.557Z,20.87
2019-05-14T12:42:38.853Z,20.80
2019-05-14T12:45:09.150Z,20.49
2019-05-14T12:47:38.466Z,21.76
2019-05-14T12:50:09.383Z,24.67
2019-05-14T12:52:38.957Z,17.99
2019-05-14T12:55:09.105Z,23.65
2019-05-14T12:57:39.392Z,23.75
2019-05-14T13:00:08.941Z,23.43
2019-05-14T13:02:37.350Z,22.81
2019-05-14T13:05:05.545Z,18.49
2019-05-14T13:07:33.687Z,22.32
2019-05-14T13:10:01.878Z,20.21
2019-05-14T13:12:30.011Z,17.68
2019-05-14T13:14:58.173Z,17.31
2019-05-14T13:17:28.135Z,21.43
2019-05-14T13:19:56.399Z,21.37
2019-05-14T13:22:38.426Z,22.73
2019-05-14T13:24:54.384Z,20.98
2019-05-14T13:27:22.518Z,19.34
2019-05-14T13:29:50.693Z,20.94
2019-05-14T13:32:19.524Z,22.29
2019-05-14T13:34:48.652Z,21.08
2019-05-14T13:37:18.001Z,19.12
2019-05-14T13:39:52.028Z,18.80
2019-05-14T13:42:18.533Z,21.05
2019-05-14T13:44:45.982Z,20.79
2019-05-14T13:47:14.126Z,15.75
2019-05-14T13:49:42.404Z,20.30
2019-05-14T13:52:10.530Z,20.85
2019-05-14T13:54:39.406Z,19.12
2019-05-14T13:57:09.073Z,17.05
2019-05-14T13:59:43.974Z,19.65
2019-05-14T14:02:09.892Z,21.13
2019-05-14T14:04:38.212Z,20.93
2019-05-14T14:07:09.100Z,21.52
2019-05-14T14:12:03.416Z,20.98
2019-05-14T14:14:31.621Z,20.40
2019-05-14T14:16:59.853Z,19.88
2019-05-14T14:19:28.316Z,20.18
2019-05-14T14:21:59.134Z,20.14
2019-05-14T14:24:28.863Z,19.59
2019-05-14T14:26:58.370Z,21.25
2019-05-14T14:29:26.162Z,20.84
2019-05-14T14:31:54.321Z,21.31
2019-05-14T14:34:22.522Z,18.30
2019-05-14T14:36:54.873Z,18.47
2019-05-14T14:39:20.610Z,27.37
2019-05-14T14:41:49.151Z,24.26
2019-05-14T14:44:19.101Z,20.66
2019-05-14T14:46:48.350Z,20.91
2019-05-14T14:49:18.752Z,20.12
2019-05-14T14:51:48.941Z,21.37
2019-05-14T14:54:16.568Z,21.70
2019-05-14T14:56:44.866Z,20.51
2019-05-14T14:59:13.119Z,21.32
2019-05-14T15:01:41.278Z,20.55
2019-05-14T15:04:13.527Z,20.15
2019-05-14T15:06:40.004Z,21.01
2019-05-14T15:09:09.764Z,20.59
2019-05-14T15:11:39.717Z,20.68
2019-05-14T15:14:08.525Z,20.22
2019-05-14T15:16:39.088Z,21.56
2019-05-14T15:19:09.231Z,16.49
2019-05-14T15:21:36.567Z,23.43
2019-05-14T15:24:13.817Z,20.63
2019-05-14T15:26:34.646Z,18.05
2019-05-14T15:29:02.929Z,21.80
2019-05-14T15:31:31.125Z,22.26
2019-05-14T15:33:59.600Z,22.52
2019-05-14T15:36:27.763Z,21.67
2019-05-14T15:38:55.883Z,22.29
2019-05-14T15:41:24.041Z,20.62
2019-05-14T15:43:52.318Z,20.96
2019-05-14T15:46:20.469Z,22.11
2019-05-14T15:48:48.930Z,21.69
2019-05-14T15:51:19.622Z,22.46
2019-05-14T15:54:06.475Z,21.61
2019-05-14T15:56:18.726Z,21.94
2019-05-14T15:58:47.040Z,23.42
2019-05-14T16:01:15.213Z,23.69
2019-05-14T16:03:43.296Z,22.79
2019-05-14T16:06:11.462Z,22.29
2019-05-14T16:08:40.381Z,23.18
2019-05-14T16:11:11.484Z,22.06
2019-05-14T16:13:39.816Z,22.16
2019-05-14T16:16:10.514Z,23.59
2019-05-14T16:18:38.607Z,23.62
2019-05-14T16:21:06.850Z,24.44
2019-05-14T16:23:34.994Z,22.22
2019-05-14T16:26:03.121Z,22.18
2019-05-14T16:28:31.426Z,22.08
2019-05-14T16:30:59.661Z,22.35
2019-05-14T16:33:29.145Z,21.25
2019-05-14T16:35:58.185Z,21.54
2019-05-14T16:38:28.511Z,21.31
2019-05-14T16:40:55.176Z,20.40
2019-05-14T16:43:23.425Z,21.82
2019-05-14T16:45:51.633Z,23.27
2019-05-14T16:48:19.941Z,23.61
2019-05-14T16:50:48.883Z,23.65
2019-05-14T16:53:19.416Z,22.06
2019-05-14T16:55:46.129Z,19.02
2019-05-14T16:58:14.298Z,22.05
2019-05-14T17:00:42.496Z,22.58
2019-05-14T17:03:10.586Z,21.98
2019-05-14T17:05:38.774Z,19.31
2019-05-14T17:08:09.933Z,22.79
2019-05-14T17:10:35.910Z,23.18
2019-05-14T17:13:04.034Z,20.30
2019-05-14T17:15:32.252Z,25.20
2019-05-14T17:18:00.508Z,23.23
2019-05-14T17:20:28.683Z,22.92
2019-05-14T17:22:59.271Z,22.46
2019-05-14T17:25:27.918Z,22.59
2019-05-14T17:27:55.586Z,22.96
2019-05-14T17:30:23.816Z,22.88
2019-05-14T17:32:52.011Z,23.03
2019-05-14T17:35:20.169Z,23.91
2019-05-14T17:37:48.534Z,24.41
2019-05-14T17:40:16.790Z,24.28
2019-05-14T17:42:44.983Z,23.77
2019-05-14T17:45:13.338Z,23.90
2019-05-14T17:47:41.513Z,24.01
2019-05-14T17:50:09.861Z,24.09
2019-05-14T17:52:42.913Z,23.27
2019-05-14T17:55:11.567Z,24.95
2019-05-14T17:57:44.377Z,24.76
2019-05-14T18:00:09.489Z,25.24
2019-05-14T18:02:37.851Z,24.87
2019-05-14T18:05:09.501Z,25.04
2019-05-14T18:07:36.529Z,25.07
2019-05-14T18:10:05.308Z,25.26
2019-05-14T18:12:33.404Z,25.86
2019-05-14T18:15:01.583Z,25.74
2019-05-14T18:17:29.785Z,25.61
2019-05-14T18:19:58.843Z,26.40
2019-05-14T18:22:28.637Z,25.95
2019-05-14T18:24:59.194Z,25.96
2019-05-14T18:27:29.342Z,26.88
2019-05-14T18:29:59.113Z,26.41
2019-05-14T18:32:26.922Z,27.45
2019-05-14T18:34:55.035Z,26.82
2019-05-14T18:37:23.296Z,26.83
2019-05-14T18:39:51.687Z,26.94
2019-05-14T18:42:19.892Z,28.90
2019-05-14T18:44:49.778Z,27.75
2019-05-14T18:47:20.079Z,28.58
2019-05-14T18:49:48.621Z,28.00
2019-05-14T18:52:18.403Z,27.75
2019-05-14T18:54:48.350Z,27.98
2019-05-14T18:57:18.034Z,28.13
2019-05-14T18:59:49.116Z,28.56
2019-05-14T19:02:18.307Z,29.06
2019-05-14T19:04:48.289Z,29.39
2019-05-14T19:07:16.053Z,30.36
2019-05-14T19:09:44.394Z,30.36
2019-05-14T19:12:12.791Z,30.21
2019-05-14T19:14:40.939Z,30.44
2019-05-14T19:17:09.314Z,30.58
2019-05-14T19:19:38.648Z,30.97
2019-05-14T19:22:07.041Z,31.20
2019-05-14T19:24:35.311Z,31.24
2019-05-14T19:27:03.594Z,31.47
2019-05-14T19:29:31.773Z,31.59
2019-05-14T19:31:59.906Z,31.73
2019-05-14T19:34:28.766Z,32.20
2019-05-14T19:36:56.995Z,32.36
2019-05-14T19:39:25.180Z,32.92
2019-05-14T19:41:53.451Z,33.06
2019-05-14T19:44:21.733Z,33.02
2019-05-14T19:46:49.951Z,32.97
2019-05-14T19:49:18.511Z,33.65
2019-05-14T19:51:48.349Z,33.65
2019-05-14T19:54:19.528Z,33.83
2019-05-14T19:56:55.533Z,33.82
2019-05-14T19:59:18.306Z,33.78
2019-05-14T20:01:48.426Z,33.90
2019-05-14T20:04:18.257Z,34.15
2019-05-14T20:06:49.139Z,34.44
2019-05-14T20:09:17.920Z,34.51
2019-05-14T20:11:48.863Z,34.88
2019-05-14T20:14:16.031Z,35.10
2019-05-14T20:16:44.284Z,35.25
2019-05-14T20:19:12.499Z,35.63
2019-05-14T20:21:40.728Z,35.63
2019-05-14T20:24:08.910Z,35.84
2019-05-14T20:26:39.039Z,35.88
2019-05-14T20:29:08.828Z,36.04
2019-05-14T20:31:38.853Z,36.31
2019-05-14T20:34:08.442Z,36.61
2019-05-14T20:36:38.798Z,37.25
2019-05-14T20:39:08.675Z,36.64
2019-05-14T20:41:38.543Z,36.71
2019-05-14T20:44:06.861Z,37.00
2019-05-14T20:46:35.022Z,37.38
2019-05-14T20:49:03.187Z,37.26
2019-05-14T20:51:31.376Z,37.28
2019-05-14T20:53:59.754Z,37.51
2019-05-14T20:56:28.471Z,38.01
2019-05-14T20:58:58.926Z,38.06
2019-05-14T21:01:29.124Z,38.10
2019-05-14T21:03:59.275Z,37.82
2019-05-14T21:06:28.018Z,38.02
2019-05-14T21:08:58.377Z,38.32
2019-05-14T21:11:28.564Z,38.45
2019-05-14T21:13:58.130Z,38.55
2019-05-14T21:16:28.282Z,38.85
2019-05-14T21:18:59.059Z,39.06
2019-05-14T21:21:28.104Z,39.21
2019-05-14T21:23:58.497Z,39.24
2019-05-14T21:26:26.045Z,39.46
2019-05-14T21:28:54.317Z,39.73
2019-05-14T21:31:22.620Z,39.72
2019-05-14T21:33:50.779Z,39.83
2019-05-14T21:36:19.501Z,39.84
2019-05-14T21:38:49.126Z,39.84
2019-05-14T21:41:20.132Z,40.15
2019-05-14T21:43:49.276Z,40.15
2019-05-14T21:46:19.432Z,40.17
2019-05-14T21:48:47.913Z,40.08
2019-05-14T21:51:18.047Z,40.25
2019-05-14T21:53:48.219Z,40.29
2019-05-14T21:56:21.277Z,40.66
2019-05-14T21:58:48.034Z,40.77
2019-05-14T22:01:16.079Z,40.96
2019-05-14T22:03:44.363Z,41.07
2019-05-14T22:06:12.483Z,40.73
2019-05-14T22:08:40.736Z,40.92
2019-05-14T22:11:08.990Z,40.92
2019-05-14T22:13:38.126Z,41.22
2019-05-14T22:16:08.405Z,41.21
2019-05-14T22:18:38.650Z,41.36
2019-05-14T22:21:08.645Z,41.32
2019-05-14T22:23:38.531Z,41.48
2019-05-14T22:26:06.077Z,41.31
2019-05-14T22:28:34.229Z,41.55
2019-05-14T22:31:02.529Z,41.48
2019-05-14T22:33:30.666Z,41.58
2019-05-14T22:36:00.962Z,41.87
2019-05-14T22:38:29.492Z,41.89
2019-05-14T22:40:59.231Z,41.75
2019-05-14T22:43:28.825Z,41.85
2019-05-14T22:45:59.090Z,41.87
2019-05-14T22:48:27.036Z,42.03
2019-05-14T22:50:55.413Z,42.14
2019-05-14T22:53:23.603Z,42.04
2019-05-14T22:55:51.797Z,42.06
2019-05-14T22:58:25.542Z,42.19
2019-05-14T23:01:01.561Z,42.13
2019-05-14T23:03:21.169Z,42.05
2019-05-14T23:05:50.154Z,42.16
2019-05-14T23:08:18.548Z,42.27
2019-05-14T23:10:49.120Z,42.36
2019-05-14T23:13:18.599Z,42.48
2019-05-14T23:15:48.094Z,42.45
2019-05-14T23:18:18.107Z,42.38
2019-05-14T23:20:49.037Z,42.62
2019-05-14T23:23:18.525Z,42.53
2019-05-14T23:25:46.697Z,42.87
2019-05-14T23:28:14.844Z,42.82
2019-05-14T23:30:43.050Z,42.85
2019-05-14T23:33:11.212Z,43.14
2019-05-14T23:35:39.822Z,43.12
2019-05-14T23:38:08.487Z,42.99
2019-05-14T23:40:38.805Z,42.97
2019-05-14T23:43:07.242Z,43.15
2019-05-14T23:45:37.877Z,53.30
2019-05-14T23:48:05.355Z,44.11
2019-05-14T23:50:33.496Z,43.55
2019-05-14T23:53:01.635Z,43.33
2019-05-14T23:55:29.772Z,45.87
2019-05-14T23:57:58.653Z,43.28
